createdAt,value
2023-03-12T00:01:13.450Z,67.20
2023-03-12T00:03:17.404Z,67.20
2023-03-12T00:05:22.410Z,67.20
2023-03-12T00:07:27.698Z,67.30
2023-03-12T00:09:31.543Z,67.40
2023-03-12T00:11:35.463Z,67.40
2023-03-12T00:13:39.511Z,67.40
2023-03-12T00:15:43.341Z,67.50
2023-03-12T00:17:47.219Z,67.50
2023-03-12T00:19:53.274Z,67.50
2023-03-12T00:21:57.257Z,67.60
2023-03-12T00:24:02.434Z,67.60
2023-03-12T00:26:07.756Z,67.60
2023-03-12T00:28:11.919Z,67.70
2023-03-12T00:30:16.649Z,67.80
2023-03-12T00:32:20.723Z,68.40
2023-03-12T00:34:24.820Z,67.80
2023-03-12T00:36:30.412Z,67.80
2023-03-12T00:38:34.260Z,67.90
2023-03-12T00:40:40.271Z,67.90
2023-03-12T00:42:44.183Z,67.90
2023-03-12T00:44:48.045Z,68.00
2023-03-12T00:46:52.298Z,68.00
2023-03-12T00:48:56.205Z,68.10
2023-03-12T00:51:00.295Z,68.10
2023-03-12T00:53:04.134Z,68.10
2023-03-12T00:55:09.441Z,68.10
2023-03-12T00:57:14.738Z,68.10
2023-03-12T00:59:19.115Z,68.20
2023-03-12T01:01:22.926Z,68.20
2023-03-12T01:03:27.030Z,68.20
2023-03-12T01:05:34.098Z,68.30
2023-03-12T01:07:39.352Z,68.30
2023-03-12T01:09:43.250Z,68.30
2023-03-12T01:11:47.092Z,68.30
2023-03-12T01:13:52.497Z,68.30
2023-03-12T01:15:56.677Z,68.30
2023-03-12T01:18:00.724Z,68.40
2023-03-12T01:20:05.746Z,68.40
2023-03-12T01:22:09.510Z,68.40
2023-03-12T01:24:13.355Z,68.50
2023-03-12T01:26:17.139Z,68.60
2023-03-12T01:28:20.987Z,68.50
2023-03-12T01:30:26.380Z,68.60
2023-03-12T01:32:30.392Z,68.80
2023-03-12T01:34:35.408Z,68.80
2023-03-12T01:36:39.287Z,68.80
2023-03-12T01:38:43.079Z,68.80
2023-03-12T01:40:47.074Z,68.90
2023-03-12T01:42:53.817Z,68.90
2023-03-12T01:44:59.063Z,69.00
2023-03-12T01:47:04.897Z,69.10
2023-03-12T01:49:10.407Z,69.20
2023-03-12T01:51:15.415Z,69.20
2023-03-12T01:53:19.561Z,69.20
2023-03-12T01:55:23.431Z,69.60
2023-03-12T01:57:30.842Z,69.20
2023-03-12T01:59:38.233Z,69.30
2023-03-12T02:01:42.090Z,69.30
2023-03-12T02:03:48.090Z,69.40
2023-03-12T02:05:54.868Z,69.40
2023-03-12T02:07:59.128Z,69.60
2023-03-12T02:10:03.075Z,69.60
2023-03-12T02:12:08.689Z,69.60
2023-03-12T02:14:12.981Z,69.60
2023-03-12T02:16:17.327Z,69.60
2023-03-12T02:18:22.033Z,69.60
2023-03-12T02:20:29.572Z,69.60
2023-03-12T02:22:33.498Z,69.70
2023-03-12T02:24:39.977Z,69.70
2023-03-12T02:26:46.943Z,69.80
2023-03-12T02:28:51.053Z,69.80
2023-03-12T02:30:58.579Z,69.90
2023-03-12T02:33:06.085Z,69.90
2023-03-12T02:35:10.796Z,69.90
2023-03-12T02:37:14.888Z,70.00
2023-03-12T02:39:19.771Z,70.00
2023-03-12T02:41:25.477Z,69.90
2023-03-12T02:44:06.450Z,70.00
2023-03-12T02:46:13.761Z,70.70
2023-03-12T02:48:17.780Z,70.00
2023-03-12T02:50:22.410Z,70.20
2023-03-12T02:52:26.670Z,70.10
2023-03-12T02:54:31.070Z,70.20
2023-03-12T02:56:35.455Z,70.20
2023-03-12T02:58:42.993Z,70.30
2023-03-12T03:00:47.373Z,70.20
2023-03-12T03:02:52.060Z,70.20
2023-03-12T03:04:56.306Z,70.30
2023-03-12T03:07:00.373Z,70.30
2023-03-12T03:09:04.796Z,70.30
2023-03-12T03:11:08.934Z,70.30
2023-03-12T03:13:13.076Z,70.30
2023-03-12T03:15:18.758Z,70.30
2023-03-12T03:17:23.414Z,70.20
2023-03-12T03:19:27.609Z,70.30
2023-03-12T03:21:31.692Z,70.20
2023-03-12T03:23:36.044Z,70.30
2023-03-12T03:25:40.211Z,70.30
2023-03-12T03:27:44.348Z,70.30
2023-03-12T03:31:55.140Z,70.30
2023-03-12T03:33:59.108Z,70.30
2023-03-12T03:36:03.625Z,70.20
2023-03-12T03:38:09.763Z,70.20
2023-03-12T03:40:14.645Z,70.30
2023-03-12T03:42:18.700Z,70.30
2023-03-12T03:44:23.956Z,70.30
2023-03-12T03:46:28.546Z,70.30
2023-03-12T03:48:39.383Z,70.30
2023-03-12T03:50:45.221Z,70.30
2023-03-12T03:52:49.431Z,70.30
2023-03-12T03:54:54.260Z,70.30
2023-03-12T03:56:58.424Z,70.30
2023-03-12T03:59:04.004Z,70.30
2023-03-12T04:01:10.115Z,70.30
2023-03-12T04:03:14.375Z,70.30
2023-03-12T04:05:20.836Z,70.30
2023-03-12T04:07:27.058Z,70.30
2023-03-12T04:09:31.527Z,70.30
2023-03-12T04:11:35.620Z,70.30
2023-03-12T04:13:41.237Z,70.30
2023-03-12T04:15:48.673Z,70.30
2023-03-12T04:17:52.895Z,70.40
2023-03-12T04:19:57.809Z,70.50
2023-03-12T04:22:04.422Z,70.30
2023-03-12T04:24:08.815Z,70.30
2023-03-12T04:26:13.130Z,70.40
2023-03-12T04:28:17.245Z,70.50
2023-03-12T04:30:21.841Z,71.00
2023-03-12T04:32:26.683Z,70.40
2023-03-12T04:34:30.866Z,70.40
2023-03-12T04:36:35.036Z,70.30
2023-03-12T04:38:41.308Z,70.30
2023-03-12T04:40:45.567Z,70.30
2023-03-12T04:42:49.703Z,70.30
2023-03-12T04:44:53.758Z,70.30
2023-03-12T04:46:57.998Z,70.30
2023-03-12T04:49:03.549Z,70.30
2023-03-12T04:51:09.347Z,70.30
2023-03-12T04:53:13.403Z,70.30
2023-03-12T04:55:19.168Z,70.30
2023-03-12T04:57:23.200Z,70.30
2023-03-12T04:59:27.626Z,70.20
2023-03-12T05:01:33.061Z,70.30
2023-03-12T05:03:39.416Z,70.30
2023-03-12T05:05:43.468Z,70.20
2023-03-12T05:07:47.867Z,70.20
2023-03-12T05:09:52.318Z,70.20
2023-03-12T05:11:57.800Z,70.20
2023-03-12T05:14:01.838Z,70.20
2023-03-12T05:16:08.020Z,70.20
2023-03-12T05:18:12.343Z,70.20
2023-03-12T05:20:17.616Z,70.20
2023-03-12T05:22:23.321Z,70.20
2023-03-12T05:24:27.533Z,70.20
2023-03-12T05:26:33.358Z,70.20
2023-03-12T05:28:49.416Z,70.20
2023-03-12T05:30:55.693Z,70.20
2023-03-12T05:33:00.277Z,70.20
2023-03-12T05:35:05.372Z,70.20
2023-03-12T05:37:09.593Z,70.20
2023-03-12T05:39:13.555Z,70.10
2023-03-12T05:41:20.743Z,70.30
2023-03-12T05:43:25.331Z,71.30
2023-03-12T05:45:31.333Z,71.10
2023-03-12T05:47:36.489Z,71.10
2023-03-12T05:49:40.533Z,71.10
2023-03-12T05:51:44.675Z,71.10
2023-03-12T05:53:48.689Z,71.10
2023-03-12T05:55:52.679Z,71.10
2023-03-12T05:57:56.912Z,71.10
2023-03-12T06:00:00.865Z,71.10
2023-03-12T06:02:06.379Z,71.00
2023-03-12T06:04:10.802Z,71.00
2023-03-12T06:06:14.856Z,70.90
2023-03-12T06:08:18.962Z,70.90
2023-03-12T06:10:22.882Z,70.80
2023-03-12T06:12:27.749Z,70.80
2023-03-12T06:14:31.666Z,70.80
2023-03-12T06:16:37.727Z,70.80
2023-03-12T06:18:43.136Z,70.80
2023-03-12T06:20:47.839Z,70.80
2023-03-12T06:22:51.917Z,70.80
2023-03-12T06:24:56.110Z,70.70
2023-03-12T06:27:00.362Z,70.70
2023-03-12T06:29:06.277Z,70.70
2023-03-12T06:31:11.457Z,70.60
2023-03-12T06:33:15.542Z,71.30
2023-03-12T06:35:21.562Z,71.20
2023-03-12T06:37:25.752Z,71.10
2023-03-12T06:39:30.367Z,71.10
2023-03-12T06:41:34.850Z,71.60
2023-03-12T06:43:39.719Z,71.60
2023-03-12T06:45:43.873Z,70.90
2023-03-12T06:47:47.946Z,70.80
2023-03-12T06:49:52.091Z,70.80
2023-03-12T06:51:57.572Z,70.80
2023-03-12T06:54:02.605Z,70.70
2023-03-12T06:56:08.017Z,70.70
2023-03-12T06:58:12.175Z,70.80
2023-03-12T07:00:16.946Z,70.70
2023-03-12T07:02:21.131Z,70.80
2023-03-12T07:04:25.377Z,70.80
2023-03-12T07:06:29.736Z,70.60
2023-03-12T07:08:35.206Z,70.70
2023-03-12T07:10:39.359Z,70.80
2023-03-12T07:12:43.421Z,70.70
2023-03-12T07:14:47.456Z,70.70
2023-03-12T07:16:51.658Z,70.70
2023-03-12T07:18:55.740Z,70.70
2023-03-12T07:21:00.286Z,70.80
2023-03-12T07:23:04.466Z,70.80
2023-03-12T07:25:10.889Z,70.80
2023-03-12T07:27:14.932Z,70.70
2023-03-12T07:29:19.070Z,70.70
2023-03-12T07:31:23.248Z,70.70
2023-03-12T07:33:27.390Z,70.70
2023-03-12T07:35:32.779Z,70.70
2023-03-12T07:37:37.147Z,70.80
2023-03-12T07:39:41.469Z,70.80
2023-03-12T07:41:46.937Z,70.80
2023-03-12T07:43:51.651Z,70.70
2023-03-12T07:45:55.696Z,70.80
2023-03-12T07:47:59.820Z,70.70
2023-03-12T07:50:03.936Z,70.70
2023-03-12T07:52:10.064Z,70.70
2023-03-12T07:54:14.351Z,70.80
2023-03-12T07:56:18.665Z,70.70
2023-03-12T07:58:24.341Z,70.70
2023-03-12T08:00:28.684Z,70.70
2023-03-12T08:02:32.880Z,70.70
2023-03-12T08:04:37.100Z,70.70
2023-03-12T08:06:42.798Z,70.70
2023-03-12T08:08:46.928Z,70.60
2023-03-12T08:10:51.067Z,70.60
2023-03-12T08:12:55.186Z,70.60
2023-03-12T08:15:00.871Z,70.60
2023-03-12T08:17:05.127Z,70.60
2023-03-12T08:19:09.173Z,70.60
2023-03-12T08:21:16.412Z,70.60
2023-03-12T08:23:20.743Z,70.70
2023-03-12T08:25:24.965Z,71.30
2023-03-12T08:27:29.351Z,70.60
2023-03-12T08:29:33.490Z,70.60
2023-03-12T08:31:47.526Z,70.60
2023-03-12T08:33:57.910Z,70.60
2023-03-12T08:36:01.914Z,70.60
2023-03-12T08:38:06.480Z,70.60
2023-03-12T08:40:13.453Z,70.50
2023-03-12T08:42:17.751Z,70.70
2023-03-12T08:44:21.799Z,70.60
2023-03-12T08:46:25.921Z,70.60
2023-03-12T08:48:32.392Z,70.70
2023-03-12T08:50:36.544Z,70.70
2023-03-12T08:52:40.735Z,70.60
2023-03-12T08:54:45.086Z,70.70
2023-03-12T08:56:51.928Z,70.70
2023-03-12T08:58:56.107Z,70.70
2023-03-12T09:01:00.418Z,70.80
2023-03-12T09:03:04.770Z,70.90
2023-03-12T09:05:11.362Z,71.10
2023-03-12T09:07:18.315Z,70.60
2023-03-12T09:09:27.436Z,67.20
2023-03-12T09:11:41.127Z,66.50
2023-03-12T09:29:09.888Z,61.90
2023-03-12T09:31:47.011Z,61.30
2023-03-12T09:33:51.152Z,60.00
2023-03-12T09:36:53.922Z,62.20
2023-03-12T09:39:26.215Z,65.40
2023-03-12T09:41:36.842Z,66.00
2023-03-12T09:43:54.802Z,66.10
2023-03-12T09:46:20.963Z,66.40
2023-03-12T09:48:29.852Z,66.70
2023-03-12T09:50:34.592Z,66.80
2023-03-12T09:52:43.694Z,66.90
2023-03-12T09:54:50.376Z,67.00
2023-03-12T09:56:54.228Z,67.20
2023-03-12T09:58:58.032Z,67.40
2023-03-12T10:01:07.227Z,67.40
2023-03-12T10:03:24.606Z,67.50
2023-03-12T10:05:35.970Z,67.60
2023-03-12T10:07:43.175Z,67.70
2023-03-12T10:10:10.719Z,67.80
2023-03-12T10:12:20.773Z,68.00
2023-03-12T10:14:36.513Z,68.00
2023-03-12T10:17:00.579Z,68.20
2023-03-12T10:19:17.567Z,68.20
2023-03-12T10:21:23.382Z,68.30
2023-03-12T10:23:35.679Z,68.50
2023-03-12T10:25:43.042Z,68.50
2023-03-12T10:27:46.988Z,68.60
2023-03-12T10:29:51.747Z,68.60
2023-03-12T10:31:58.700Z,68.80
2023-03-12T10:34:03.544Z,68.90
2023-03-12T10:36:16.368Z,69.00
2023-03-12T10:38:24.997Z,69.10
2023-03-12T10:40:30.127Z,69.30
2023-03-12T10:42:34.077Z,69.30
2023-03-12T10:44:44.992Z,69.40
2023-03-12T10:47:07.938Z,69.40
2023-03-12T10:49:33.216Z,69.40
2023-03-12T10:51:54.040Z,69.70
2023-03-12T10:53:57.706Z,69.80
2023-03-12T10:56:07.288Z,69.90
2023-03-12T10:58:24.669Z,70.10
2023-03-12T11:00:30.411Z,70.30
2023-03-12T11:02:36.207Z,70.50
2023-03-12T11:04:40.035Z,70.70
2023-03-12T11:06:45.219Z,70.80
2023-03-12T11:09:21.108Z,71.00
2023-03-12T11:11:32.909Z,71.10
2023-03-12T11:13:37.979Z,71.30
2023-03-12T11:15:42.822Z,71.10
2023-03-12T11:17:46.688Z,71.30
2023-03-12T11:19:52.753Z,71.40
2023-03-12T11:21:59.734Z,71.30
2023-03-12T11:24:10.112Z,71.50
2023-03-12T11:26:17.774Z,71.60
2023-03-12T11:28:25.071Z,71.60
2023-03-12T11:30:37.919Z,71.70
2023-03-12T11:32:48.429Z,71.90
2023-03-12T11:34:53.045Z,71.80
2023-03-12T11:37:06.558Z,71.90
2023-03-12T11:39:17.672Z,72.00
2023-03-12T11:41:32.155Z,72.60
2023-03-12T11:43:46.374Z,72.10
2023-03-12T11:46:12.366Z,72.20
2023-03-12T11:48:23.196Z,72.30
2023-03-12T11:50:48.669Z,72.40
2023-03-12T11:53:11.877Z,72.40
2023-03-12T11:55:23.500Z,72.50
2023-03-12T11:57:34.686Z,72.50
2023-03-12T11:59:51.882Z,72.40
2023-03-12T12:02:03.143Z,72.40
2023-03-12T12:04:44.201Z,72.40
2023-03-12T12:06:56.603Z,72.60
2023-03-12T12:09:15.726Z,72.80
2023-03-12T12:11:22.045Z,72.80
2023-03-12T12:13:29.330Z,72.90
2023-03-12T12:15:38.863Z,73.00
2023-03-12T12:17:52.104Z,73.10
2023-03-12T12:20:12.070Z,73.10
2023-03-12T12:22:35.521Z,73.10
2023-03-12T12:24:51.752Z,73.10
2023-03-12T12:27:01.986Z,73.30
2023-03-12T12:29:27.952Z,73.30
2023-03-12T12:31:36.707Z,73.30
2023-03-12T12:33:55.392Z,73.50
2023-03-12T12:35:59.289Z,73.60
2023-03-12T12:38:05.213Z,73.60
2023-03-12T12:40:19.370Z,73.50
2023-03-12T12:42:27.153Z,73.40
2023-03-12T12:44:33.580Z,73.50
2023-03-12T12:46:38.602Z,73.60
2023-03-12T12:48:44.358Z,73.70
2023-03-12T12:50:48.326Z,73.60
2023-03-12T12:52:55.492Z,73.80
2023-03-12T12:55:01.855Z,73.60
2023-03-12T12:57:12.820Z,73.70
2023-03-12T12:59:31.541Z,73.80
2023-03-12T13:01:36.127Z,73.80
2023-03-12T13:03:40.444Z,73.80
2023-03-12T13:06:00.097Z,73.90
2023-03-12T13:08:04.187Z,73.90
2023-03-12T13:10:10.169Z,73.90
2023-03-12T13:12:22.316Z,74.20
2023-03-12T13:14:40.546Z,74.20
2023-03-12T13:16:44.730Z,74.10
2023-03-12T13:18:57.847Z,74.10
2023-03-12T13:21:14.327Z,74.20
2023-03-12T13:23:31.009Z,74.20
2023-03-12T13:25:48.310Z,74.30
2023-03-12T13:28:03.091Z,74.30
2023-03-12T13:30:48.154Z,74.30
2023-03-12T13:33:12.697Z,74.20
2023-03-12T13:35:31.875Z,74.20
2023-03-12T13:38:02.096Z,74.20
2023-03-12T13:40:53.526Z,74.30
2023-03-12T13:43:11.423Z,74.20
2023-03-12T13:45:30.914Z,74.30
2023-03-12T13:47:39.000Z,74.40
2023-03-12T13:49:44.863Z,74.40
2023-03-12T13:51:57.652Z,74.50
2023-03-12T13:54:02.764Z,74.70
2023-03-12T13:56:09.298Z,75.30
2023-03-12T13:58:21.424Z,74.70
2023-03-12T14:00:28.394Z,74.70
2023-03-12T14:02:34.566Z,74.70
2023-03-12T14:04:39.720Z,74.70
2023-03-12T14:06:57.933Z,74.70
2023-03-12T14:09:14.499Z,74.80
2023-03-12T14:11:25.501Z,74.80
2023-03-12T14:13:44.612Z,74.80
2023-03-12T14:15:52.293Z,74.90
2023-03-12T14:17:58.835Z,74.90
2023-03-12T14:20:05.442Z,74.90
2023-03-12T14:22:09.476Z,74.90
2023-03-12T14:24:23.679Z,75.50
2023-03-12T14:26:29.081Z,74.90
2023-03-12T14:28:33.772Z,74.90
2023-03-12T14:30:50.023Z,74.90
2023-03-12T14:32:56.111Z,74.80
2023-03-12T14:35:09.468Z,74.80
2023-03-12T14:37:17.900Z,75.00
2023-03-12T14:39:28.306Z,75.00
2023-03-12T14:41:35.056Z,75.00
2023-03-12T14:43:39.457Z,74.90
2023-03-12T14:45:45.221Z,75.00
2023-03-12T14:47:53.010Z,74.80
2023-03-12T14:49:58.058Z,75.00
2023-03-12T14:52:02.100Z,75.30
2023-03-12T14:54:06.398Z,75.00
2023-03-12T14:56:14.894Z,74.90
2023-03-12T14:58:20.683Z,74.80
2023-03-12T15:00:26.105Z,74.90
2023-03-12T15:02:32.053Z,75.00
2023-03-12T15:04:36.184Z,74.90
2023-03-12T15:06:44.663Z,75.00
2023-03-12T15:08:49.036Z,75.00
2023-03-12T15:10:56.513Z,75.00
2023-03-12T15:13:01.356Z,75.00
2023-03-12T15:15:08.127Z,75.00
2023-03-12T15:17:15.949Z,75.00
2023-03-12T15:19:25.209Z,75.00
2023-03-12T15:21:29.237Z,75.00
2023-03-12T15:23:35.619Z,75.00
2023-03-12T15:25:40.173Z,75.00
2023-03-12T15:27:44.235Z,75.00
2023-03-12T15:29:48.200Z,75.10
2023-03-12T15:31:52.258Z,74.90
2023-03-12T15:34:03.588Z,75.00
2023-03-12T15:36:27.473Z,75.00
2023-03-12T15:38:32.743Z,75.10
2023-03-12T15:40:37.419Z,75.00
2023-03-12T15:42:42.450Z,74.90
2023-03-12T15:44:47.837Z,75.00
2023-03-12T15:46:53.750Z,75.10
2023-03-12T15:48:58.644Z,74.90
2023-03-12T15:51:02.647Z,75.00
2023-03-12T15:53:28.538Z,74.90
2023-03-12T15:55:33.441Z,74.80
2023-03-12T15:57:46.278Z,74.60
2023-03-12T16:00:18.285Z,74.60
2023-03-12T16:02:37.159Z,74.60
2023-03-12T16:04:41.054Z,74.80
2023-03-12T16:06:46.905Z,74.70
2023-03-12T16:08:53.422Z,74.80
2023-03-12T16:10:57.455Z,74.90
2023-03-12T16:13:03.383Z,74.90
2023-03-12T16:15:08.549Z,74.80
2023-03-12T16:17:14.465Z,74.80
2023-03-12T16:19:20.159Z,74.80
2023-03-12T16:21:24.217Z,74.80
2023-03-12T16:23:28.113Z,74.80
2023-03-12T16:25:33.673Z,74.90
2023-03-12T16:27:40.058Z,74.80
2023-03-12T16:29:44.147Z,74.80
2023-03-12T16:31:50.586Z,74.70
2023-03-12T16:33:54.709Z,74.90
2023-03-12T16:35:59.142Z,74.80
2023-03-12T16:38:03.315Z,74.70
2023-03-12T16:40:09.467Z,74.70
2023-03-12T16:42:16.748Z,74.80
2023-03-12T16:44:21.411Z,74.70
2023-03-12T16:46:25.597Z,74.80
2023-03-12T16:48:29.459Z,74.70
2023-03-12T16:50:33.377Z,74.80
2023-03-12T16:52:37.268Z,74.80
2023-03-12T16:54:41.120Z,74.80
2023-03-12T16:56:45.958Z,74.80
2023-03-12T16:58:51.129Z,74.80
2023-03-12T17:00:55.692Z,75.50
2023-03-12T17:02:59.809Z,74.90
2023-03-12T17:05:03.621Z,74.80
2023-03-12T17:07:07.434Z,74.90
2023-03-12T17:09:11.292Z,74.80
2023-03-12T17:11:17.023Z,74.80
2023-03-12T17:13:21.477Z,74.80
2023-03-12T17:15:28.295Z,74.70
2023-03-12T17:17:32.234Z,74.80
2023-03-12T17:19:36.236Z,75.00
2023-03-12T17:21:40.187Z,74.90
2023-03-12T17:23:44.904Z,74.70
2023-03-12T17:25:49.048Z,74.70
2023-03-12T17:27:53.141Z,74.70
2023-03-12T17:29:57.183Z,74.90
2023-03-12T17:32:02.592Z,74.80
2023-03-12T17:34:06.586Z,74.90
2023-03-12T17:36:10.871Z,75.00
2023-03-12T17:38:14.820Z,75.00
2023-03-12T17:40:19.173Z,75.80
2023-03-12T17:42:23.078Z,75.20
2023-03-12T17:44:32.531Z,75.20
2023-03-12T17:46:39.150Z,75.30
2023-03-12T17:48:45.883Z,76.10
2023-03-12T17:50:49.898Z,75.40
2023-03-12T17:52:54.129Z,75.30
2023-03-12T17:54:57.960Z,75.30
2023-03-12T17:57:02.044Z,75.40
2023-03-12T17:59:06.011Z,75.40
2023-03-12T18:01:10.311Z,74.90
2023-03-12T18:03:15.428Z,75.10
2023-03-12T18:05:20.776Z,75.30
2023-03-12T18:07:24.632Z,75.80
2023-03-12T18:09:28.856Z,75.40
2023-03-12T18:11:32.716Z,75.30
2023-03-12T18:13:37.555Z,75.50
2023-03-12T18:15:59.930Z,75.60
2023-03-12T18:18:04.070Z,75.70
2023-03-12T18:20:10.154Z,75.80
2023-03-12T18:22:15.382Z,75.90
2023-03-12T18:24:19.270Z,75.90
2023-03-12T18:26:25.623Z,76.10
2023-03-12T18:28:29.626Z,76.30
2023-03-12T18:30:33.578Z,77.00
2023-03-12T18:32:37.524Z,76.50
2023-03-12T18:34:42.372Z,76.60
2023-03-12T18:36:46.274Z,76.80
2023-03-12T18:38:51.590Z,76.70
2023-03-12T18:41:04.844Z,76.80
2023-03-12T18:43:08.824Z,76.80
2023-03-12T18:45:13.031Z,76.90
2023-03-12T18:47:16.908Z,76.90
2023-03-12T18:49:21.452Z,76.90
2023-03-12T18:51:25.507Z,77.00
2023-03-12T18:53:29.451Z,77.10
2023-03-12T18:55:34.731Z,77.00
2023-03-12T18:57:38.599Z,77.10
2023-03-12T18:59:45.271Z,77.10
2023-03-12T19:01:49.207Z,77.10
2023-03-12T19:03:53.173Z,77.10
2023-03-12T19:06:04.118Z,77.40
2023-03-12T19:08:08.012Z,77.30
2023-03-12T19:10:13.356Z,77.30
2023-03-12T19:12:18.610Z,77.30
2023-03-12T19:14:22.456Z,77.40
2023-03-12T19:16:26.386Z,77.30
2023-03-12T19:18:30.354Z,77.40
2023-03-12T19:20:34.316Z,77.40
2023-03-12T19:22:38.293Z,77.50
2023-03-12T19:24:43.933Z,77.40
2023-03-12T19:26:48.683Z,77.40
2023-03-12T19:28:54.341Z,77.40
2023-03-12T19:31:01.251Z,77.50
2023-03-12T19:33:05.451Z,77.60
2023-03-12T19:35:11.016Z,77.80
2023-03-12T19:37:15.015Z,77.90
2023-03-12T19:39:21.352Z,77.80
2023-03-12T19:41:25.690Z,77.80
2023-03-12T19:43:29.641Z,77.80
2023-03-12T19:45:38.333Z,77.80
2023-03-12T19:47:42.273Z,78.20
2023-03-12T19:50:02.010Z,78.20
2023-03-12T19:52:05.986Z,78.40
2023-03-12T19:54:24.325Z,78.30
2023-03-12T19:56:29.080Z,78.30
2023-03-12T19:58:33.078Z,78.40
2023-03-12T20:00:38.374Z,78.20
2023-03-12T20:02:42.296Z,78.20
2023-03-12T20:04:46.233Z,78.30
2023-03-12T20:06:50.116Z,78.20
2023-03-12T20:08:53.967Z,78.30
2023-03-12T20:11:04.431Z,78.40
2023-03-12T20:16:51.128Z,78.40
2023-03-12T20:18:54.936Z,78.60
2023-03-12T20:20:58.807Z,78.60
2023-03-12T20:23:02.622Z,78.60
2023-03-12T20:25:07.805Z,78.80
2023-03-12T20:27:12.001Z,79.10
2023-03-12T20:29:15.846Z,79.10
2023-03-12T20:31:19.787Z,79.10
2023-03-12T20:33:25.024Z,79.10
2023-03-12T20:35:28.898Z,79.10
2023-03-12T20:37:32.815Z,79.10
2023-03-12T20:39:36.749Z,79.10
2023-03-12T20:41:40.800Z,79.30
2023-03-12T20:43:45.652Z,79.70
2023-03-12T20:45:49.470Z,79.20
2023-03-12T20:47:54.398Z,79.00
2023-03-12T20:49:59.580Z,79.20
2023-03-12T20:52:03.464Z,79.10
2023-03-12T20:54:07.438Z,79.10
2023-03-12T20:56:11.586Z,79.10
2023-03-12T20:58:15.447Z,79.30
2023-03-12T21:00:21.441Z,79.00
2023-03-12T21:02:25.452Z,79.10
2023-03-12T21:04:29.345Z,78.40
2023-03-12T21:06:34.554Z,78.10
2023-03-12T21:08:38.747Z,78.50
2023-03-12T21:10:42.621Z,78.40
2023-03-12T21:12:46.483Z,78.10
2023-03-12T21:14:50.321Z,76.30
2023-03-12T21:16:54.293Z,75.60
2023-03-12T21:18:58.399Z,76.10
2023-03-12T21:21:03.374Z,76.50
2023-03-12T21:23:09.303Z,77.00
2023-03-12T21:25:13.298Z,77.30
2023-03-12T21:27:17.384Z,77.40
2023-03-12T21:29:21.230Z,77.60
2023-03-12T21:31:26.598Z,77.70
2023-03-12T21:33:30.467Z,78.00
2023-03-12T21:35:34.385Z,78.10
2023-03-12T21:37:38.270Z,78.10
2023-03-12T21:39:43.484Z,78.30
2023-03-12T21:41:47.332Z,78.30
2023-03-12T21:43:51.255Z,78.20
2023-03-12T21:45:55.315Z,78.20
2023-03-12T21:47:59.214Z,78.50
2023-03-12T21:50:03.094Z,78.60
2023-03-12T21:52:06.958Z,78.60
2023-03-12T21:54:10.920Z,78.60
2023-03-12T21:56:16.427Z,78.70
2023-03-12T21:58:20.889Z,78.80
2023-03-12T22:00:25.995Z,78.90
2023-03-12T22:02:31.133Z,78.90
2023-03-12T22:04:35.024Z,78.80
2023-03-12T22:06:38.879Z,78.80
2023-03-12T22:08:43.132Z,78.80
2023-03-12T22:10:47.021Z,78.80
2023-03-12T22:12:52.428Z,78.70
2023-03-12T22:14:56.277Z,78.60
2023-03-12T22:17:00.126Z,78.60
2023-03-12T22:19:04.048Z,78.70
2023-03-12T22:21:08.349Z,78.70
2023-03-12T22:23:12.201Z,78.80
2023-03-12T22:25:16.254Z,50.80
2023-03-12T22:27:20.285Z,55.70
2023-03-12T22:29:25.477Z,60.70
2023-03-12T22:31:30.389Z,65.70
2023-03-12T22:33:35.633Z,68.30
2023-03-12T22:35:45.066Z,69.50
2023-03-12T22:37:48.954Z,69.40
2023-03-12T22:39:52.992Z,69.60
2023-03-12T22:41:56.849Z,69.90
2023-03-12T22:44:03.701Z,70.20
2023-03-12T22:46:08.942Z,70.40
2023-03-12T22:48:12.872Z,70.50
2023-03-12T22:50:17.085Z,70.60
2023-03-12T22:52:20.975Z,70.70
2023-03-12T22:54:24.816Z,70.80
2023-03-12T22:56:28.735Z,70.80
2023-03-12T22:58:32.620Z,70.90
2023-03-12T23:00:36.499Z,71.00
2023-03-12T23:02:41.954Z,71.70
2023-03-12T23:04:45.899Z,71.10
2023-03-12T23:06:49.787Z,71.20
2023-03-12T23:08:54.641Z,71.30
2023-03-12T23:11:00.645Z,71.30
2023-03-12T23:13:04.473Z,72.10
2023-03-12T23:15:09.853Z,71.50
2023-03-12T23:17:13.697Z,71.50
2023-03-12T23:19:18.882Z,71.60
2023-03-12T23:21:23.779Z,71.70
2023-03-12T23:23:27.649Z,71.80
2023-03-12T23:25:31.884Z,71.80
2023-03-12T23:27:35.897Z,71.90
2023-03-12T23:29:39.715Z,72.00
2023-03-12T23:31:43.603Z,72.00
2023-03-12T23:33:47.449Z,72.10
2023-03-12T23:35:57.778Z,72.10
2023-03-12T23:38:01.946Z,72.20
2023-03-12T23:40:10.330Z,72.30
2023-03-12T23:42:14.153Z,72.30
2023-03-12T23:44:17.942Z,72.40
2023-03-12T23:46:21.859Z,72.50
2023-03-12T23:48:25.754Z,72.50
2023-03-12T23:50:29.572Z,72.60
2023-03-12T23:52:34.742Z,72.60
2023-03-12T23:54:38.534Z,72.60
2023-03-12T23:56:43.232Z,72.70
2023-03-12T23:58:47.196Z,72.70
